Time;durP1;ratioP1;P1;durP2;ratioP2;P2;SDS_P1;SDS_P2;PMS_P1;PMS_P2;Temp;Humidity;BMP_temperature;BMP_pressure;BME280_temperature;BME280_humidity;BME280_pressure;Samples;Min_cycle;Max_cycle;Signal;HPM_P1;HPM_P2
2021/03/29 00:00:17;;;;;;;0.00;0.00;;;;;;;11.14;60.47;101520.81;5070441;28;20526;-71
2021/03/29 00:02:42;;;;;;;2.93;1.20;;;;;;;11.08;61.14;101522.81;5070390;28;20273;-71
2021/03/29 00:05:09;;;;;;;1.47;0.87;;;;;;;11.08;61.37;101522.81;5070304;28;20277;-71
2021/03/29 00:07:37;;;;;;;4.57;0.90;;;;;;;11.01;61.24;101516.88;5069562;28;20182;-71
2021/03/29 00:10:07;;;;;;;0.40;0.40;;;;;;;11.00;61.44;101520.72;5070407;28;20179;-71
2021/03/29 00:12:39;;;;;;;0.83;0.80;;;;;;;10.93;61.65;101514.75;5070306;28;20209;-71
2021/03/29 00:15:07;;;;;;;1.00;0.80;;;;;;;10.89;62.21;101517.25;5070172;28;20181;-71
2021/03/29 00:17:34;;;;;;;1.47;1.33;;;;;;;10.84;62.47;101516.47;5070292;28;20261;-71
2021/03/29 00:20:00;;;;;;;2.37;0.73;;;;;;;10.87;61.98;101515.91;5070180;28;20171;-71
2021/03/29 00:22:26;;;;;;;1.13;0.80;;;;;;;10.92;61.47;101515.84;5070260;28;20216;-71
2021/03/29 00:24:52;;;;;;;3.20;1.43;;;;;;;10.93;61.71;101510.09;5070071;28;20206;-71
2021/03/29 00:27:17;;;;;;;7.50;1.53;;;;;;;10.93;61.50;101501.06;5068679;28;20587;-71
2021/03/29 00:29:43;;;;;;;1.53;1.33;;;;;;;10.88;61.98;101498.41;5070019;28;20174;-71
2021/03/29 00:32:10;;;;;;;0.80;0.80;;;;;;;10.90;62.19;101493.47;5070067;28;20764;-71
2021/03/29 00:34:37;;;;;;;0.67;0.43;;;;;;;10.87;62.28;101505.78;5069902;28;20181;-71
2021/03/29 00:37:03;;;;;;;0.60;0.60;;;;;;;10.84;62.77;101500.88;5069772;28;20183;-71
2021/03/29 00:39:30;;;;;;;0.40;0.40;;;;;;;10.84;62.37;101506.34;5070103;28;20254;-71
2021/03/29 00:41:56;;;;;;;0.87;0.63;;;;;;;10.89;61.71;101502.75;5070234;28;20312;-71
2021/03/29 00:44:22;;;;;;;1.57;1.50;;;;;;;10.90;62.25;101501.66;5071206;28;20269;-71
2021/03/29 00:46:48;;;;;;;1.53;1.13;;;;;;;10.92;62.09;101507.66;5073224;28;20198;-71
2021/03/29 00:49:15;;;;;;;1.20;1.10;;;;;;;10.90;62.23;101498.94;5073312;28;20217;-71
2021/03/29 00:51:41;;;;;;;0.37;0.37;;;;;;;10.86;61.93;101509.63;5073618;28;20295;-71
2021/03/29 00:54:08;;;;;;;2.43;1.70;;;;;;;10.85;62.15;101509.88;5073787;28;20171;-71
2021/03/29 00:56:35;;;;;;;0.80;0.73;;;;;;;10.80;62.79;101513.50;5073113;28;20183;-71
2021/03/29 00:59:01;;;;;;;2.17;1.97;;;;;;;10.73;63.00;101508.38;5073436;28;20531;-71
2021/03/29 01:01:28;;;;;;;4.37;1.07;;;;;;;10.68;62.92;101516.59;5073421;28;20174;-71
2021/03/29 01:03:58;;;;;;;0.50;0.40;;;;;;;10.67;62.76;101512.22;5073342;28;20174;-71
2021/03/29 01:06:26;;;;;;;2.57;1.63;;;;;;;10.71;62.73;101512.50;5073111;28;20206;-71
2021/03/29 01:08:54;;;;;;;6.63;0.93;;;;;;;10.70;62.80;101516.31;5072921;28;20175;-71
2021/03/29 01:11:29;;;;;;;1.23;1.10;;;;;;;10.70;62.62;101508.94;5073257;28;20632;-71
2021/03/29 01:14:03;;;;;;;1.23;1.23;;;;;;;10.69;62.82;101512.75;5073335;28;20180;-71
2021/03/29 01:16:37;;;;;;;1.83;1.73;;;;;;;10.70;63.35;101510.84;5071501;28;20379;-71
2021/03/29 01:19:09;;;;;;;17.60;0.87;;;;;;;10.72;62.50;101514.13;5073550;28;20515;-71
2021/03/29 01:21:43;;;;;;;3.80;1.90;;;;;;;10.73;62.60;101513.84;5073085;28;20179;-71
2021/03/29 01:24:33;;;;;;;1.87;1.40;;;;;;;10.73;62.80;101518.50;5073045;28;20578;-71
2021/03/29 01:26:59;;;;;;;0.87;0.83;;;;;;;10.75;62.52;101518.19;5071640;28;20206;-71
2021/03/29 01:29:30;;;;;;;1.23;1.17;;;;;;;10.76;62.65;101508.88;5072674;28;20185;-71
2021/03/29 01:31:58;;;;;;;1.87;1.10;;;;;;;10.69;63.15;101507.28;5072967;28;20651;-71
2021/03/29 01:34:26;;;;;;;1.70;0.90;;;;;;;10.68;63.36;101511.13;5072942;28;20170;-71
2021/03/29 01:36:52;;;;;;;3.17;1.17;;;;;;;10.67;63.11;101508.69;5072367;28;20183;-71
2021/03/29 01:39:18;;;;;;;2.07;1.20;;;;;;;10.67;63.28;101508.69;5072758;28;20175;-71
2021/03/29 01:41:43;;;;;;;2.20;2.00;;;;;;;10.66;63.73;101515.25;5072753;28;20186;-71
2021/03/29 01:44:09;;;;;;;1.00;1.00;;;;;;;10.67;63.56;101509.50;5072724;28;20182;-71
2021/03/29 01:46:36;;;;;;;1.00;1.00;;;;;;;10.67;63.30;101514.16;5072282;28;20289;-71
2021/03/29 01:49:01;;;;;;;2.70;1.63;;;;;;;10.66;63.88;101521.53;5072300;28;20356;-71
2021/03/29 01:51:28;;;;;;;1.53;1.43;;;;;;;10.64;63.70;101522.91;5072603;28;20173;-71
2021/03/29 01:53:55;;;;;;;1.73;1.47;;;;;;;10.61;64.14;101507.91;5072388;28;20235;-71
2021/03/29 01:56:21;;;;;;;1.70;1.53;;;;;;;10.62;64.28;101506.81;5071841;28;20170;-71
2021/03/29 01:58:46;;;;;;;2.73;1.17;;;;;;;10.55;64.61;101508.22;5072446;28;20178;-71
2021/03/29 02:01:12;;;;;;;0.77;0.77;;;;;;;10.61;64.61;101510.66;5072455;28;20185;-71
2021/03/29 02:03:40;;;;;;;7.00;2.00;;;;;;;10.62;63.87;101503.25;5072264;28;20657;-70
2021/03/29 02:06:06;;;;;;;2.53;1.53;;;;;;;10.59;64.28;101503.84;5071922;28;20195;-72
2021/03/29 02:08:33;;;;;;;0.90;0.83;;;;;;;10.61;63.97;101501.63;5071718;28;20607;-71
2021/03/29 02:11:00;;;;;;;2.20;2.10;;;;;;;10.60;63.91;101495.34;5072187;28;20178;-71
2021/03/29 02:13:44;;;;;;;1.67;1.13;;;;;;;10.63;64.00;101492.03;5072075;28;20197;-71
2021/03/29 02:16:13;;;;;;;1.83;1.73;;;;;;;10.53;63.62;101486.66;5072087;28;20619;-71
2021/03/29 02:18:42;;;;;;;1.93;1.70;;;;;;;10.52;63.54;101486.94;5071775;28;20171;-71
2021/03/29 02:21:17;;;;;;;2.43;1.60;;;;;;;10.68;62.51;101480.25;5072208;28;20261;-71
2021/03/29 02:23:48;;;;;;;1.57;1.40;;;;;;;10.62;63.06;101476.75;5072130;28;20175;-71
2021/03/29 02:26:16;;;;;;;2.70;1.97;;;;;;;10.67;62.51;101464.94;5070750;28;20650;-71
2021/03/29 02:28:42;;;;;;;2.50;1.33;;;;;;;10.79;61.58;101459.94;5071361;28;20213;-71
2021/03/29 02:31:08;;;;;;;3.20;2.97;;;;;;;10.79;61.34;101448.19;5071779;28;20206;-71
2021/03/29 02:33:35;;;;;;;1.30;1.20;;;;;;;10.71;61.27;101447.72;5071626;28;20220;-71
2021/03/29 02:36:02;;;;;;;2.00;1.10;;;;;;;10.69;60.91;101447.16;5070154;28;20490;-71
2021/03/29 02:38:27;;;;;;;2.10;0.97;;;;;;;10.72;61.03;101449.34;5071289;28;20167;-71
2021/03/29 02:40:54;;;;;;;9.40;1.33;;;;;;;10.72;60.50;101435.69;5071804;28;20190;-71
2021/03/29 02:43:21;;;;;;;0.80;0.80;;;;;;;10.71;60.40;101435.97;5071581;28;20182;-71
2021/03/29 02:45:51;;;;;;;0.30;0.30;;;;;;;10.65;60.55;101435.19;5071084;28;20293;-71
2021/03/29 02:48:19;;;;;;;1.13;1.07;;;;;;;10.57;60.84;101435.81;5070726;28;20187;-71
2021/03/29 02:50:48;;;;;;;0.90;0.90;;;;;;;10.56;61.25;101441.53;5071178;28;20177;-71
2021/03/29 02:53:17;;;;;;;0.70;0.70;;;;;;;10.55;60.37;101448.91;5069917;28;20186;-71
2021/03/29 02:55:43;;;;;;;0.90;0.90;;;;;;;10.58;60.50;101444.81;5071066;28;20655;-71
2021/03/29 02:58:11;;;;;;;1.10;0.70;;;;;;;10.50;60.49;101450.91;5070215;28;20181;-71
2021/03/29 03:00:37;;;;;;;1.77;1.67;;;;;;;10.57;60.12;101451.41;5070443;28;20650;-71
2021/03/29 03:03:04;;;;;;;0.70;0.70;;;;;;;10.56;60.07;101457.94;5071376;28;20174;-70
2021/03/29 03:05:32;;;;;;;0.53;0.53;;;;;;;10.52;59.94;101457.69;5071179;28;20208;-71
2021/03/29 03:07:58;;;;;;;1.97;1.87;;;;;;;10.52;59.70;101460.44;5070574;28;20510;-71
2021/03/29 03:10:27;;;;;;;1.50;1.13;;;;;;;10.56;59.60;101457.94;5071002;28;20661;-71
2021/03/29 03:12:53;;;;;;;3.17;1.30;;;;;;;10.52;59.74;101463.16;5071069;28;20175;-71
2021/03/29 03:15:21;;;;;;;0.90;0.73;;;;;;;10.49;60.16;101465.66;5070932;28;20174;-71
2021/03/29 03:17:47;;;;;;;0.00;0.00;;;;;;;10.45;59.90;101492.75;5069304;28;20611;-71
2021/03/29 03:20:14;;;;;;;3.57;1.27;;;;;;;10.47;59.60;101474.16;5070948;28;20167;-71
2021/03/29 03:22:52;;;;;;;0.23;0.23;;;;;;;10.47;59.54;101496.00;5070993;28;20223;-71
2021/03/29 03:25:24;;;;;;;0.50;0.50;;;;;;;10.43;59.66;101484.03;5069322;28;20186;-71
2021/03/29 03:27:51;;;;;;;4.23;1.30;;;;;;;10.43;59.53;101494.94;5069474;28;20193;-70
2021/03/29 03:30:26;;;;;;;0.87;0.87;;;;;;;10.35;60.29;101493.63;5070566;28;20171;-71
2021/03/29 03:32:52;;;;;;;2.03;1.80;;;;;;;10.36;59.87;101491.72;5070836;28;20170;-71
2021/03/29 03:35:20;;;;;;;7.27;0.83;;;;;;;10.39;59.96;101491.13;5070770;28;20215;-71
2021/03/29 03:37:51;;;;;;;0.40;0.40;;;;;;;10.41;59.08;101486.19;5070229;28;20170;-71
2021/03/29 03:40:20;;;;;;;0.90;0.53;;;;;;;10.37;59.99;101494.16;5070495;28;20171;-70
2021/03/29 03:42:45;;;;;;;0.80;0.80;;;;;;;10.30;60.04;101485.47;5070519;28;20171;-71
2021/03/29 03:45:11;;;;;;;1.40;1.00;;;;;;;10.33;59.68;101470.44;5069188;28;20557;-70
2021/03/29 03:47:38;;;;;;;0.80;0.80;;;;;;;10.37;59.57;101468.75;5070325;28;20250;-70
2021/03/29 03:50:08;;;;;;;0.40;0.40;;;;;;;10.49;58.90;101471.13;5070447;28;20177;-71
2021/03/29 03:52:34;;;;;;;0.70;0.70;;;;;;;10.56;59.04;101466.13;5069247;28;20185;-70
2021/03/29 03:55:00;;;;;;;0.20;0.10;;;;;;;10.58;58.47;101461.22;5070646;28;20171;-70
2021/03/29 03:57:25;;;;;;;1.27;0.80;;;;;;;10.58;59.06;101470.22;5070084;28;20205;-71
2021/03/29 03:59:51;;;;;;;2.47;0.87;;;;;;;10.59;59.21;101466.41;5070966;28;20170;-70
2021/03/29 04:02:16;;;;;;;0.80;0.80;;;;;;;10.57;58.72;101460.41;5070691;28;20718;-71
2021/03/29 04:04:42;;;;;;;0.67;0.67;;;;;;;10.60;58.54;101459.00;5070493;28;20174;-71
2021/03/29 04:07:08;;;;;;;0.77;0.77;;;;;;;10.65;58.47;101454.31;5069869;28;20280;-70
2021/03/29 04:12:07;;;;;;;0.50;0.40;;;;;;;10.70;58.07;101461.63;5070814;28;20166;-70
2021/03/29 04:14:32;;;;;;;3.73;0.67;;;;;;;10.70;57.86;101467.09;5069243;28;20170;-71
2021/03/29 04:16:58;;;;;;;1.27;1.10;;;;;;;10.72;57.71;101473.13;5070075;28;20646;-71
2021/03/29 04:19:23;;;;;;;0.97;0.97;;;;;;;10.76;57.87;101467.88;5073702;28;20170;-71
2021/03/29 04:21:48;;;;;;;1.20;0.60;;;;;;;10.77;57.36;101477.72;5074805;28;20177;-71
2021/03/29 04:24:13;;;;;;;1.60;1.50;;;;;;;10.69;58.06;101496.34;5074705;28;20259;-71
2021/03/29 04:26:41;;;;;;;0.30;0.30;;;;;;;10.65;58.37;101483.56;5073043;28;20588;-71
2021/03/29 04:29:07;;;;;;;0.30;0.30;;;;;;;10.56;59.07;101471.59;5073653;28;20198;-71
2021/03/29 04:31:33;;;;;;;0.90;0.90;;;;;;;10.54;58.88;101477.34;5074184;28;20307;-70
2021/03/29 04:33:58;;;;;;;1.23;0.90;;;;;;;10.48;59.16;101472.22;5074029;28;20174;-70
2021/03/29 04:36:23;;;;;;;0.63;0.63;;;;;;;10.39;59.46;101480.19;5073767;28;20638;-71
2021/03/29 04:38:49;;;;;;;0.83;0.83;;;;;;;10.49;59.14;101477.41;5074218;28;20178;-71
2021/03/29 04:41:14;;;;;;;1.63;0.90;;;;;;;10.54;58.61;101465.59;5074121;28;20254;-71
2021/03/29 04:43:39;;;;;;;0.40;0.40;;;;;;;10.54;58.67;101465.59;5074050;28;20181;-70
2021/03/29 04:46:05;;;;;;;4.10;0.83;;;;;;;10.48;58.55;101464.84;5073370;28;20522;-71
2021/03/29 04:48:30;;;;;;;1.53;0.83;;;;;;;10.46;59.12;101456.13;5074548;28;20174;-70
2021/03/29 04:50:55;;;;;;;0.83;0.83;;;;;;;10.49;58.50;101452.81;5072118;28;20182;-71
2021/03/29 04:53:21;;;;;;;0.23;0.20;;;;;;;10.53;58.45;101447.59;5074085;28;20206;-71
2021/03/29 04:55:46;;;;;;;2.10;1.63;;;;;;;10.58;58.35;101459.31;5073958;28;20186;-71
2021/03/29 04:58:11;;;;;;;8.37;0.83;;;;;;;10.60;58.67;101457.09;5073439;28;20167;-70
2021/03/29 05:00:36;;;;;;;0.40;0.40;;;;;;;10.58;58.75;101459.31;5073843;28;20177;-71
2021/03/29 05:03:02;;;;;;;1.10;1.00;;;;;;;10.63;58.39;101464.72;5073646;28;20527;-71
2021/03/29 05:05:27;;;;;;;0.40;0.40;;;;;;;10.70;58.15;101465.22;5073289;28;20253;-71
2021/03/29 05:07:53;;;;;;;0.40;0.40;;;;;;;10.72;57.89;101448.53;5072829;28;20232;-70
2021/03/29 05:10:18;;;;;;;0.50;0.50;;;;;;;10.72;58.34;101462.19;5071863;28;20182;-71
2021/03/29 05:12:44;;;;;;;1.70;1.60;;;;;;;10.77;58.00;101458.59;5074153;28;20167;-71
2021/03/29 05:15:10;;;;;;;0.83;0.77;;;;;;;10.78;58.15;101463.75;5079456;28;20196;-70
2021/03/29 05:17:36;;;;;;;0.30;0.30;;;;;;;10.83;57.95;101460.16;5080903;28;20195;-71
2021/03/29 05:20:03;;;;;;;0.57;0.40;;;;;;;10.87;57.43;101469.44;5075428;28;20193;-71
2021/03/29 05:22:29;;;;;;;0.00;0.00;;;;;;;10.90;57.39;101475.13;5073595;28;20167;-71
2021/03/29 05:24:54;;;;;;;3.07;1.33;;;;;;;10.91;57.88;101473.22;5073371;28;20577;-71
2021/03/29 05:27:19;;;;;;;0.73;0.73;;;;;;;10.97;57.35;101472.88;5072071;28;20680;-71
2021/03/29 05:29:46;;;;;;;0.30;0.30;;;;;;;10.98;57.10;101463.56;5072064;28;20183;-71
2021/03/29 05:32:21;;;;;;;0.47;0.47;;;;;;;11.01;56.99;101463.00;5072962;28;20185;-74
2021/03/29 05:34:49;;;;;;;0.40;0.40;;;;;;;11.00;57.09;101471.50;5072864;28;20265;-72
2021/03/29 05:37:16;;;;;;;0.57;0.53;;;;;;;10.99;57.49;101445.22;5072610;28;20605;-72
2021/03/29 05:39:41;;;;;;;1.07;0.20;;;;;;;10.97;57.17;101463.84;5073092;28;20228;-72
2021/03/29 05:42:08;;;;;;;0.20;0.20;;;;;;;10.95;57.45;101475.06;5072939;28;20547;-72
2021/03/29 05:44:35;;;;;;;0.63;0.63;;;;;;;11.01;57.21;101484.06;5072703;28;20180;-72
2021/03/29 05:47:01;;;;;;;0.70;0.60;;;;;;;11.00;57.54;101482.44;5072015;28;20196;-76
2021/03/29 05:49:26;;;;;;;1.53;0.90;;;;;;;11.02;57.21;101477.50;5072845;28;20607;-71
2021/03/29 05:51:52;;;;;;;0.83;0.50;;;;;;;11.05;57.36;101487.84;5072279;28;20254;-71
2021/03/29 05:54:18;;;;;;;0.57;0.57;;;;;;;11.04;56.99;101486.22;5072686;28;20564;-71
2021/03/29 05:56:44;;;;;;;1.40;0.43;;;;;;;10.95;58.49;101486.00;5072091;28;20179;-71
2021/03/29 05:59:15;;;;;;;0.10;0.10;;;;;;;11.01;58.14;101500.47;5071532;28;20778;-71
2021/03/29 06:01:51;;;;;;;1.00;1.00;;;;;;;11.05;57.52;101495.22;5072843;28;20178;-72
2021/03/29 06:04:46;;;;;;;0.47;0.47;;;;;;;11.04;57.49;101508.09;5072462;28;20315;-72
2021/03/29 06:07:19;;;;;;;0.43;0.37;;;;;;;11.06;57.45;101508.63;5071888;28;20297;-72
2021/03/29 06:09:49;;;;;;;0.77;0.77;;;;;;;11.05;57.33;101508.91;5070773;28;20203;-71
2021/03/29 06:12:16;;;;;;;0.73;0.73;;;;;;;11.04;57.66;101508.09;5072270;28;20174;-72
2021/03/29 06:14:44;;;;;;;0.30;0.27;;;;;;;11.05;57.72;101512.47;5072111;28;20219;-72
2021/03/29 06:17:21;;;;;;;1.33;0.30;;;;;;;11.04;57.53;101510.81;5071686;28;20527;-71
2021/03/29 06:19:49;;;;;;;4.50;1.67;;;;;;;11.00;58.17;101504.31;5071965;28;20650;-71
2021/03/29 06:22:23;;;;;;;11.80;1.50;;;;;;;11.00;58.46;101509.78;5070702;28;20371;-71
2021/03/29 06:24:51;;;;;;;1.53;0.87;;;;;;;11.00;58.58;101504.31;5071938;28;20182;-72
2021/03/29 06:27:17;;;;;;;1.50;0.40;;;;;;;11.03;59.40;101511.94;5069317;28;20233;-71
2021/03/29 06:29:42;;;;;;;1.47;1.37;;;;;;;11.05;57.96;101500.69;5071858;28;20597;-71
2021/03/29 06:32:07;;;;;;;0.80;0.70;;;;;;;11.09;58.03;101508.03;5071585;28;20174;-71
2021/03/29 06:34:33;;;;;;;4.10;0.90;;;;;;;11.14;58.20;101513.47;5071646;28;20183;-71
2021/03/29 06:37:06;;;;;;;0.43;0.43;;;;;;;11.16;58.10;101511.25;5071336;28;20564;-71
2021/03/29 06:39:35;;;;;;;0.80;0.80;;;;;;;11.17;57.30;101518.34;5071654;28;20716;-71
2021/03/29 06:42:01;;;;;;;0.20;0.20;;;;;;;11.24;57.43;101516.09;5071660;28;20174;-71
2021/03/29 06:44:30;;;;;;;2.97;0.40;;;;;;;11.29;57.24;101523.44;5071441;28;20240;-71
2021/03/29 06:47:13;;;;;;;1.23;0.70;;;;;;;11.31;57.03;101524.78;5071154;28;20809;-72
2021/03/29 06:49:50;;;;;;;0.90;0.90;;;;;;;11.32;58.33;101528.31;5071240;28;20257;-71
2021/03/29 06:52:25;;;;;;;0.30;0.30;;;;;;;11.35;57.18;101537.88;5071213;28;20767;-72
2021/03/29 06:54:51;;;;;;;0.30;0.30;;;;;;;11.39;57.36;101533.44;5069973;28;20184;-72
2021/03/29 06:57:31;;;;;;;0.50;0.50;;;;;;;11.43;57.00;101534.47;5071124;28;20182;-72
2021/03/29 06:59:57;;;;;;;0.40;0.40;;;;;;;11.47;57.77;101530.09;5071249;28;20715;-71
2021/03/29 07:02:36;;;;;;;1.37;1.00;;;;;;;11.52;57.65;101533.56;5071234;28;20641;-72
2021/03/29 07:05:03;;;;;;;0.23;0.23;;;;;;;11.55;57.76;101534.91;5071273;28;20175;-72
2021/03/29 07:07:30;;;;;;;1.03;0.80;;;;;;;11.55;57.54;101535.72;5069330;28;20206;-73
2021/03/29 07:09:58;;;;;;;0.60;0.40;;;;;;;11.56;57.91;101531.88;5071018;28;20171;-73
2021/03/29 07:12:27;;;;;;;0.60;0.60;;;;;;;11.57;57.54;101541.75;5070620;28;20232;-75
2021/03/29 07:14:53;;;;;;;1.77;0.83;;;;;;;11.61;57.39;101525.53;5069744;28;20194;-72
2021/03/29 07:17:20;;;;;;;0.50;0.50;;;;;;;11.66;56.93;101519.19;5070694;28;20170;-72
2021/03/29 07:19:46;;;;;;;8.50;1.27;;;;;;;11.70;57.00;101536.66;5071138;28;20213;-72
2021/03/29 07:22:14;;;;;;;4.80;0.87;;;;;;;11.70;57.40;101528.44;5070780;28;20201;-72
2021/03/29 07:24:40;;;;;;;3.03;1.57;;;;;;;11.71;57.91;101533.63;5071018;28;20233;-72
2021/03/29 07:27:07;;;;;;;36.80;0.80;;;;;;;11.73;57.14;101536.91;5069389;28;20693;-76
2021/03/29 07:29:37;;;;;;;0.97;0.80;;;;;;;11.74;56.69;101540.44;5071021;28;20185;-76
2021/03/29 07:32:05;;;;;;;0.47;0.40;;;;;;;11.73;57.35;101547.84;5070440;28;20174;-72
2021/03/29 07:34:51;;;;;;;0.23;0.20;;;;;;;11.71;57.25;101535.53;5070578;28;20638;-72
2021/03/29 07:37:32;;;;;;;0.67;0.40;;;;;;;11.71;57.75;101536.34;5070292;28;20174;-72
2021/03/29 07:39:59;;;;;;;0.53;0.53;;;;;;;11.69;57.44;101541.31;5070705;28;20201;-72
2021/03/29 07:42:24;;;;;;;1.17;0.50;;;;;;;11.76;57.49;101549.19;5069342;28;20204;-72
2021/03/29 07:45:28;;;;;;;0.77;0.77;;;;;;;11.81;57.45;101541.75;5070387;28;20186;-72
2021/03/29 07:47:57;;;;;;;0.77;0.77;;;;;;;11.94;57.97;101547.63;5028354;28;20205;-72
2021/03/29 07:50:25;;;;;;;0.53;0.27;;;;;;;12.06;56.53;101545.28;5069516;28;20181;-72
2021/03/29 07:52:51;;;;;;;0.20;0.20;;;;;;;12.21;57.92;101545.06;5069070;28;20209;-72
2021/03/29 07:55:26;;;;;;;0.60;0.60;;;;;;;12.33;57.19;101547.38;5070424;28;20638;-73
2021/03/29 07:57:51;;;;;;;2.03;0.70;;;;;;;12.40;56.04;101536.84;5070194;28;20257;-72
2021/03/29 08:00:22;;;;;;;4.70;0.77;;;;;;;12.34;56.47;101536.13;5069050;28;20265;-72
2021/03/29 08:02:48;;;;;;;1.13;1.07;;;;;;;12.41;56.30;101536.53;5065047;28;20243;-72
2021/03/29 08:05:15;;;;;;;0.67;0.67;;;;;;;12.43;57.12;101536.25;5067317;28;20213;-72
2021/03/29 08:07:43;;;;;;;0.43;0.43;;;;;;;12.41;56.68;101533.81;5069937;28;20209;-72
2021/03/29 08:10:11;;;;;;;5.17;0.67;;;;;;;12.37;56.23;101527.28;5070361;28;20174;-72
2021/03/29 08:12:37;;;;;;;6.10;2.47;;;;;;;12.43;57.89;101545.28;5069479;28;20259;-72
2021/03/29 08:15:03;;;;;;;0.30;0.30;;;;;;;12.54;57.40;101543.22;5052935;28;20647;-72
2021/03/29 08:17:35;;;;;;;0.50;0.40;;;;;;;12.64;57.44;101540.31;5047597;28;20608;-72
2021/03/29 08:20:13;;;;;;;2.67;1.47;;;;;;;12.78;57.21;101551.34;5049695;28;20182;-72
2021/03/29 08:22:38;;;;;;;0.20;0.10;;;;;;;12.90;58.53;101559.94;5049968;28;20248;-71
2021/03/29 08:25:07;;;;;;;0.10;0.10;;;;;;;13.00;57.85;101547.94;5050038;28;20663;-71
2021/03/29 08:27:33;;;;;;;0.40;0.40;;;;;;;13.07;57.74;101548.41;5048540;28;20264;-72
2021/03/29 08:30:14;;;;;;;0.83;0.83;;;;;;;13.20;56.87;101558.63;5050136;28;20580;-71
2021/03/29 08:32:40;;;;;;;6.67;0.63;;;;;;;13.27;56.46;101558.22;5049680;28;20183;-72
2021/03/29 08:35:08;;;;;;;0.53;0.50;;;;;;;13.29;57.13;101558.72;5050187;28;20213;-72
2021/03/29 08:37:34;;;;;;;0.30;0.30;;;;;;;13.38;56.85;101559.66;5048301;28;20206;-71
2021/03/29 08:40:05;;;;;;;2.47;1.40;;;;;;;13.45;55.48;101562.81;5049776;28;20175;-72
2021/03/29 08:42:33;;;;;;;0.37;0.37;;;;;;;13.57;55.50;101556.84;5048811;28;20548;-72
2021/03/29 08:45:01;;;;;;;0.97;0.83;;;;;;;13.59;56.36;101569.13;5049862;28;20187;-72
2021/03/29 08:47:27;;;;;;;0.40;0.40;;;;;;;13.62;55.89;101567.72;5049958;28;20238;-72
2021/03/29 08:49:55;;;;;;;0.10;0.10;;;;;;;13.70;55.57;101581.56;5049958;28;20444;-72
2021/03/29 08:52:21;;;;;;;3.67;0.20;;;;;;;13.85;56.40;101577.69;5049537;28;20225;-71
2021/03/29 08:54:56;;;;;;;0.20;0.20;;;;;;;13.95;54.54;101571.19;5049683;28;20171;-72
2021/03/29 08:57:32;;;;;;;0.60;0.40;;;;;;;14.05;54.25;101562.75;5049594;28;20253;-71
2021/03/29 09:00:06;;;;;;;0.07;0.07;;;;;;;14.02;54.06;101576.25;5048582;28;20168;-72
2021/03/29 09:02:32;;;;;;;0.67;0.63;;;;;;;14.08;54.25;101575.84;5049909;28;20174;-71
2021/03/29 09:04:59;;;;;;;0.43;0.43;;;;;;;14.12;54.24;101579.63;5050288;28;20190;-72
2021/03/29 09:07:29;;;;;;;0.20;0.20;;;;;;;14.14;53.55;101579.31;5053323;28;20253;-76
2021/03/29 09:09:56;;;;;;;0.27;0.27;;;;;;;14.24;53.52;101570.84;5053347;28;20225;-71
2021/03/29 09:12:23;;;;;;;0.40;0.40;;;;;;;14.31;53.54;101579.47;5053271;28;20221;-72
2021/03/29 09:14:50;;;;;;;0.07;0.07;;;;;;;14.38;52.72;101584.56;5053866;28;20301;-71
2021/03/29 09:17:23;;;;;;;0.73;0.73;;;;;;;14.45;53.88;101583.03;5052934;28;20244;-72
2021/03/29 09:19:48;;;;;;;0.83;0.40;;;;;;;14.50;53.37;101593.94;5053553;28;20194;-71
2021/03/29 09:22:24;;;;;;;0.10;0.10;;;;;;;14.55;53.11;101584.75;5053391;28;20179;-72
2021/03/29 09:24:50;;;;;;;0.60;0.57;;;;;;;14.67;52.44;101584.22;5052991;28;20176;-71
2021/03/29 09:27:15;;;;;;;0.27;0.10;;;;;;;14.77;51.95;101579.28;5051643;28;20208;-72
2021/03/29 09:29:41;;;;;;;0.33;0.33;;;;;;;14.81;51.61;101577.53;5051977;28;20182;-71
2021/03/29 09:32:15;;;;;;;1.60;0.77;;;;;;;14.78;51.76;101588.34;5052413;28;20182;-71
2021/03/29 09:34:44;;;;;;;1.80;0.20;;;;;;;14.91;52.48;101586.69;5051707;28;20642;-71
2021/03/29 09:37:18;;;;;;;4.17;0.77;;;;;;;14.94;51.41;101583.28;5051408;28;20582;-71
2021/03/29 09:39:43;;;;;;;0.70;0.40;;;;;;;14.95;50.41;101571.97;5053164;28;20237;-72
2021/03/29 09:42:09;;;;;;;1.17;1.07;;;;;;;14.91;50.49;101581.16;5052966;28;20574;-72
2021/03/29 09:44:34;;;;;;;0.37;0.37;;;;;;;15.03;52.27;101586.91;5052781;28;20542;-72
2021/03/29 09:47:00;;;;;;;0.43;0.43;;;;;;;15.17;51.11;101590.41;5052390;28;20238;-71
2021/03/29 09:49:28;;;;;;;0.77;0.50;;;;;;;15.35;50.19;101586.66;5052844;28;20175;-71
2021/03/29 09:52:05;;;;;;;0.67;0.47;;;;;;;15.40;51.23;101594.75;5052402;28;20187;-72
2021/03/29 09:54:37;;;;;;;0.10;0.10;;;;;;;15.46;49.40;101589.91;5051545;28;20532;-72
2021/03/29 09:57:17;;;;;;;0.97;0.97;;;;;;;15.33;49.95;101594.38;5052261;28;20195;-71
2021/03/29 09:59:44;;;;;;;1.07;0.40;;;;;;;15.41;50.14;101588.13;5053247;28;20495;-71
2021/03/29 10:02:20;;;;;;;1.70;0.20;;;;;;;15.44;49.72;101601.25;5051204;28;20182;-72
2021/03/29 10:04:46;;;;;;;0.57;0.57;;;;;;;15.48;49.46;101591.25;5052536;28;20591;-71
2021/03/29 10:07:17;;;;;;;0.43;0.43;;;;;;;15.67;48.43;101599.31;5051884;28;20252;-72
2021/03/29 10:09:47;;;;;;;8.13;0.47;;;;;;;15.61;47.77;101599.75;5052398;28;20171;-72
2021/03/29 10:12:42;;;;;;;0.60;0.20;;;;;;;15.80;46.93;101586.56;5052169;28;20237;-72
2021/03/29 10:15:13;;;;;;;0.67;0.30;;;;;;;15.90;47.82;101590.94;5035277;28;20277;-72
2021/03/29 10:17:39;;;;;;;0.20;0.20;;;;;;;15.89;48.59;101592.09;5052021;28;20185;-72
2021/03/29 10:20:08;;;;;;;1.00;0.63;;;;;;;15.90;47.38;101589.00;5052968;28;20225;-72
2021/03/29 10:22:35;;;;;;;0.17;0.17;;;;;;;15.92;47.16;101581.25;5052386;28;20179;-71
2021/03/29 10:25:12;;;;;;;0.57;0.57;;;;;;;15.94;46.50;101592.75;5052383;28;20254;-72
2021/03/29 10:27:55;;;;;;;0.20;0.20;;;;;;;15.98;44.87;101591.00;5050609;28;20211;-71
2021/03/29 10:30:23;;;;;;;0.67;0.40;;;;;;;16.08;44.76;101581.63;5084804;28;20524;-72
2021/03/29 10:32:57;;;;;;;0.10;0.10;;;;;;;16.19;44.83;101593.94;5052025;28;20183;-72
2021/03/29 10:35:26;;;;;;;0.00;0.00;;;;;;;16.21;44.00;101596.41;5052258;28;20306;-71
2021/03/29 10:37:52;;;;;;;1.07;0.70;;;;;;;16.22;43.57;101573.22;5052116;28;20229;-72
2021/03/29 10:40:19;;;;;;;1.17;0.50;;;;;;;16.26;43.63;101576.94;5052467;28;20554;-72
2021/03/29 10:42:45;;;;;;;3.30;0.93;;;;;;;16.19;43.26;101585.69;5052180;28;20274;-71
2021/03/29 10:45:13;;;;;;;0.23;0.23;;;;;;;16.22;43.34;101574.03;5051952;28;20258;-71
2021/03/29 10:47:40;;;;;;;0.20;0.20;;;;;;;16.24;42.89;101584.72;5051826;28;20605;-71
2021/03/29 10:50:07;;;;;;;0.40;0.40;;;;;;;16.40;42.72;101582.31;5052284;28;20163;-71
2021/03/29 10:52:33;;;;;;;0.53;0.53;;;;;;;16.51;42.19;101573.41;5051736;28;20186;-71
2021/03/29 10:54:58;;;;;;;1.53;0.73;;;;;;;16.54;41.32;101588.50;5051963;28;20167;-71
2021/03/29 10:57:24;;;;;;;0.23;0.23;;;;;;;16.56;44.73;101594.50;5050555;28;20171;-71
2021/03/29 10:59:49;;;;;;;0.37;0.37;;;;;;;16.60;42.78;101588.00;5053174;28;20190;-71
2021/03/29 11:02:15;;;;;;;0.73;0.47;;;;;;;16.55;41.94;101588.19;5053028;28;20251;-72
2021/03/29 11:04:40;;;;;;;1.23;1.23;;;;;;;16.69;42.31;101595.53;5052737;28;20167;-72
2021/03/29 11:07:06;;;;;;;0.23;0.23;;;;;;;16.69;41.65;101585.28;5052473;28;20294;-71
2021/03/29 11:09:31;;;;;;;0.57;0.30;;;;;;;16.82;41.36;101594.56;5052161;28;20171;-71
2021/03/29 11:11:57;;;;;;;0.13;0.10;;;;;;;17.07;41.99;101585.44;5052251;28;20195;-72
2021/03/29 11:14:22;;;;;;;2.53;0.63;;;;;;;17.22;41.35;101573.06;5051979;28;20258;-71
2021/03/29 11:16:53;;;;;;;1.80;0.90;;;;;;;17.21;41.78;101593.50;5052595;28;20577;-72
2021/03/29 11:19:20;;;;;;;0.40;0.30;;;;;;;17.39;41.17;101591.53;5053116;28;20163;-71
2021/03/29 11:21:47;;;;;;;3.07;1.07;;;;;;;17.34;40.94;101591.69;5062388;28;20179;-71
2021/03/29 11:24:12;;;;;;;0.70;0.70;;;;;;;17.28;39.33;101595.78;5071833;28;20186;-71
2021/03/29 11:26:38;;;;;;;5.93;0.87;;;;;;;17.40;40.72;101601.44;5069106;28;20203;-72
2021/03/29 11:29:04;;;;;;;0.43;0.43;;;;;;;17.42;40.42;101601.94;5068788;28;20209;-72
2021/03/29 11:31:29;;;;;;;3.43;2.13;;;;;;;17.34;39.16;101589.75;5071617;28;20277;-72